createdAt,value
2022-09-13T00:03:42.846Z,3.53
2022-09-13T00:06:20.799Z,4.00
2022-09-13T00:08:53.732Z,4.27
2022-09-13T00:11:29.492Z,3.77
2022-09-13T00:13:59.456Z,4.00
2022-09-13T00:16:42.985Z,4.00
2022-09-13T00:19:14.710Z,3.60
2022-09-13T00:21:46.931Z,3.83
2022-09-13T00:24:15.749Z,3.90
2022-09-13T00:26:45.329Z,3.80
2022-09-13T00:32:00.355Z,3.60
2022-09-13T00:34:30.982Z,3.63
2022-09-13T00:37:00.664Z,3.70
2022-09-13T00:39:31.432Z,3.37
2022-09-13T00:42:03.582Z,3.70
2022-09-13T00:44:52.619Z,3.60
2022-09-13T00:47:38.453Z,3.67
2022-09-13T00:50:25.977Z,3.20
2022-09-13T00:53:04.249Z,3.73
2022-09-13T00:55:54.222Z,3.17
2022-09-13T00:58:26.920Z,3.20
2022-09-13T01:01:02.619Z,3.13
2022-09-13T01:03:32.429Z,3.33
2022-09-13T01:06:15.618Z,3.13
2022-09-13T01:08:47.135Z,3.00
2022-09-13T01:11:20.636Z,3.17
2022-09-13T01:14:01.523Z,2.90
2022-09-13T01:16:32.915Z,3.33
2022-09-13T01:19:05.321Z,3.23
2022-09-13T01:21:51.183Z,2.83
2022-09-13T01:24:36.819Z,3.20
2022-09-13T01:27:24.805Z,2.70
2022-09-13T01:30:13.115Z,3.10
2022-09-13T01:33:03.634Z,2.90
2022-09-13T01:36:13.070Z,2.83
2022-09-13T01:38:54.454Z,2.83
2022-09-13T01:41:24.958Z,3.10
2022-09-13T01:47:09.824Z,2.93
2022-09-13T01:50:10.877Z,2.83
2022-09-13T01:53:05.462Z,2.90
2022-09-13T01:55:56.024Z,3.10
2022-09-13T01:58:41.495Z,2.80
2022-09-13T02:01:22.447Z,3.03
2022-09-13T02:04:22.092Z,2.50
2022-09-13T02:07:17.604Z,2.60
2022-09-13T02:09:48.924Z,2.87
2022-09-13T02:12:30.230Z,2.63
2022-09-13T02:15:05.295Z,2.53
2022-09-13T02:20:26.269Z,2.60
2022-09-13T02:22:55.419Z,2.60
2022-09-13T02:25:28.466Z,3.00
2022-09-13T02:28:05.293Z,2.53
2022-09-13T02:30:36.745Z,2.63
2022-09-13T02:33:15.180Z,2.57
2022-09-13T02:35:50.236Z,2.77
2022-09-13T02:38:24.479Z,2.70
2022-09-13T02:43:48.214Z,2.63
2022-09-13T02:46:29.474Z,2.43
2022-09-13T02:49:24.898Z,2.60
2022-09-13T02:52:09.325Z,2.70
2022-09-13T02:54:44.727Z,2.70
2022-09-13T02:57:33.694Z,2.10
2022-09-13T03:02:46.010Z,2.60
2022-09-13T03:05:15.422Z,2.80
2022-09-13T03:07:46.797Z,2.60
2022-09-13T03:10:17.010Z,2.00
2022-09-13T03:13:03.034Z,2.47
2022-09-13T03:18:45.006Z,2.93
2022-09-13T03:21:27.066Z,2.10
2022-09-13T03:24:12.136Z,2.50
2022-09-13T03:26:55.711Z,2.60
2022-09-13T03:29:34.826Z,2.20
2022-09-13T03:32:24.653Z,2.77
2022-09-13T03:35:14.126Z,2.20
2022-09-13T03:37:48.443Z,2.60
2022-09-13T03:40:20.612Z,3.03
2022-09-13T03:43:09.097Z,2.37
2022-09-13T03:45:40.250Z,2.70
2022-09-13T03:48:11.064Z,2.50
2022-09-13T03:51:01.093Z,2.60
2022-09-13T03:53:31.612Z,2.40
2022-09-13T03:56:01.866Z,2.87
2022-09-13T03:58:38.195Z,2.70
2022-09-13T04:01:21.417Z,2.60
2022-09-13T04:03:57.018Z,2.77
2022-09-13T04:06:28.098Z,2.73
2022-09-13T04:09:01.980Z,2.70
2022-09-13T04:11:32.856Z,2.93
2022-09-13T04:14:09.240Z,2.80
2022-09-13T04:16:41.019Z,2.30
2022-09-13T04:19:13.852Z,2.40
2022-09-13T04:21:45.633Z,2.90
2022-09-13T04:24:18.296Z,2.77
2022-09-13T04:26:48.935Z,2.80
2022-09-13T04:29:20.819Z,2.70
2022-09-13T04:31:53.336Z,2.40
2022-09-13T04:34:28.398Z,2.57
2022-09-13T04:37:00.442Z,2.87
2022-09-13T04:39:32.659Z,2.60
2022-09-13T04:42:06.242Z,2.30
2022-09-13T04:44:37.297Z,2.60
2022-09-13T04:47:11.750Z,2.83
2022-09-13T04:49:43.118Z,2.60
2022-09-13T04:52:14.613Z,2.70
2022-09-13T04:54:45.743Z,2.40
2022-09-13T04:57:16.646Z,2.47
2022-09-13T04:59:45.136Z,2.27
2022-09-13T05:02:13.473Z,2.70
2022-09-13T05:04:45.132Z,2.33
2022-09-13T05:07:16.765Z,2.43
2022-09-13T05:09:49.478Z,2.60
2022-09-13T05:12:17.207Z,2.50
2022-09-13T05:14:50.894Z,2.47
2022-09-13T05:17:24.919Z,2.53
2022-09-13T05:20:19.094Z,11.97
2022-09-13T05:22:47.966Z,15.13
2022-09-13T05:25:22.014Z,15.27
2022-09-13T05:28:00.348Z,15.77
2022-09-13T05:30:29.827Z,14.47
2022-09-13T05:33:00.544Z,11.90
2022-09-13T05:35:30.545Z,12.73
2022-09-13T05:38:02.084Z,10.67
2022-09-13T05:40:31.899Z,7.53
2022-09-13T05:43:04.899Z,7.47
2022-09-13T05:45:35.408Z,8.10
2022-09-13T05:48:03.180Z,5.93
2022-09-13T05:50:57.299Z,5.17
2022-09-13T05:53:28.714Z,5.63
2022-09-13T05:56:00.803Z,5.10
2022-09-13T05:58:33.205Z,4.30
2022-09-13T06:03:47.780Z,5.37
2022-09-13T06:06:18.254Z,5.40
2022-09-13T06:08:47.378Z,5.37
2022-09-13T06:11:19.771Z,5.03
2022-09-13T06:13:49.517Z,4.90
2022-09-13T06:16:20.327Z,4.20
2022-09-13T06:18:50.106Z,4.67
2022-09-13T06:21:28.957Z,3.70
2022-09-13T06:24:01.319Z,3.50
2022-09-13T06:26:31.396Z,3.87
2022-09-13T06:29:03.132Z,3.33
2022-09-13T06:31:38.418Z,3.47
2022-09-13T06:34:09.300Z,3.57
2022-09-13T06:36:41.373Z,3.30
2022-09-13T06:39:14.266Z,3.50
2022-09-13T06:41:41.611Z,3.03
2022-09-13T06:44:13.765Z,3.20
2022-09-13T06:46:46.182Z,3.33
2022-09-13T06:49:17.129Z,3.00
2022-09-13T06:51:49.573Z,3.10
2022-09-13T06:54:22.737Z,3.10
2022-09-13T06:56:52.847Z,3.00
2022-09-13T06:59:37.462Z,2.83
2022-09-13T07:02:08.947Z,3.33
2022-09-13T07:04:40.238Z,3.20
2022-09-13T07:07:12.083Z,3.30
2022-09-13T07:09:50.177Z,3.57
2022-09-13T07:12:23.510Z,3.67
2022-09-13T07:14:54.155Z,4.17
2022-09-13T07:17:25.901Z,3.70
2022-09-13T07:19:59.664Z,3.83
2022-09-13T07:22:32.191Z,2.97
2022-09-13T07:25:04.940Z,3.57
2022-09-13T07:27:37.939Z,3.50
2022-09-13T07:30:08.718Z,3.50
2022-09-13T07:32:37.547Z,3.70
2022-09-13T07:35:12.391Z,3.33
2022-09-13T07:37:41.222Z,3.23
2022-09-13T07:40:11.383Z,3.37
2022-09-13T07:42:41.733Z,3.50
2022-09-13T07:45:17.094Z,3.73
2022-09-13T07:47:48.930Z,3.43
2022-09-13T07:50:26.529Z,3.47
2022-09-13T07:52:58.485Z,3.30
2022-09-13T07:55:28.901Z,3.67
2022-09-13T07:58:11.645Z,3.87
2022-09-13T08:00:44.887Z,3.10
2022-09-13T08:03:15.734Z,3.57
2022-09-13T08:05:49.298Z,4.20
2022-09-13T08:08:16.483Z,3.87
2022-09-13T08:10:49.446Z,4.03
2022-09-13T08:13:18.855Z,3.73
2022-09-13T08:15:48.991Z,4.63
2022-09-13T08:18:19.591Z,4.13
2022-09-13T08:20:50.749Z,4.17
2022-09-13T08:23:19.439Z,3.97
2022-09-13T08:25:49.952Z,4.40
2022-09-13T08:28:29.021Z,4.50
2022-09-13T08:31:00.315Z,4.20
2022-09-13T08:33:32.952Z,4.33
2022-09-13T08:36:04.205Z,4.43
2022-09-13T08:38:36.723Z,4.53
2022-09-13T08:44:07.504Z,5.17
2022-09-13T08:46:38.926Z,5.00
2022-09-13T08:49:15.554Z,4.80
2022-09-13T08:51:52.164Z,4.70
2022-09-13T08:54:22.679Z,4.70
2022-09-13T08:57:16.254Z,4.97
2022-09-13T09:00:06.004Z,6.83
2022-09-13T09:03:02.035Z,5.43
2022-09-13T09:05:46.566Z,5.77
2022-09-13T09:08:31.486Z,6.53
2022-09-13T09:11:01.290Z,7.30
2022-09-13T09:13:48.364Z,6.57
2022-09-13T09:16:33.661Z,6.53
2022-09-13T09:19:27.523Z,7.63
2022-09-13T09:21:56.748Z,9.20
2022-09-13T09:24:31.075Z,9.97
2022-09-13T09:27:03.871Z,9.00
2022-09-13T09:29:39.051Z,9.10
2022-09-13T09:32:30.276Z,8.20
2022-09-13T09:35:16.475Z,9.40
2022-09-13T09:37:48.576Z,9.27
2022-09-13T09:40:20.495Z,8.77
2022-09-13T09:42:55.062Z,8.27
2022-09-13T09:45:38.570Z,10.43
2022-09-13T09:48:18.299Z,9.43
2022-09-13T09:50:52.052Z,8.50
2022-09-13T09:53:36.187Z,9.83
2022-09-13T09:56:27.556Z,11.03
2022-09-13T09:58:58.138Z,9.70
2022-09-13T10:01:51.241Z,9.20
2022-09-13T10:04:26.578Z,9.60
2022-09-13T10:07:15.824Z,9.40
2022-09-13T10:09:55.559Z,9.07
2022-09-13T10:12:31.924Z,8.33
2022-09-13T10:15:07.733Z,8.87
2022-09-13T10:17:37.635Z,12.07
2022-09-13T10:20:27.937Z,8.43
2022-09-13T10:23:13.112Z,7.27
2022-09-13T10:25:48.008Z,10.57
2022-09-13T10:28:17.542Z,10.37
2022-09-13T10:31:00.494Z,11.83
2022-09-13T10:33:33.654Z,9.07
2022-09-13T10:36:10.455Z,7.13
2022-09-13T10:38:46.094Z,7.03
2022-09-13T10:41:26.062Z,7.43
2022-09-13T10:44:07.790Z,6.03
2022-09-13T10:46:41.461Z,6.43
2022-09-13T10:52:38.295Z,5.57
2022-09-13T10:55:27.643Z,9.40
2022-09-13T10:57:59.358Z,10.07
2022-09-13T11:00:54.767Z,7.33
2022-09-13T11:03:41.992Z,9.23
2022-09-13T11:06:30.391Z,10.37
2022-09-13T11:09:22.349Z,11.03
2022-09-13T11:12:10.632Z,8.10
2022-09-13T11:15:00.590Z,9.43
2022-09-13T11:17:33.867Z,9.47
2022-09-13T11:20:21.523Z,9.40
2022-09-13T11:23:02.894Z,7.90
2022-09-13T11:26:02.990Z,9.30
2022-09-13T11:29:05.195Z,8.93
2022-09-13T11:31:45.971Z,8.07
2022-09-13T11:34:42.634Z,7.43
2022-09-13T11:37:21.252Z,6.53
2022-09-13T11:39:57.999Z,6.10
2022-09-13T11:43:06.432Z,6.17
2022-09-13T11:45:56.647Z,6.37
2022-09-13T11:48:43.718Z,6.13
2022-09-13T11:51:38.509Z,6.67
2022-09-13T11:54:18.393Z,8.50
2022-09-13T11:56:57.609Z,7.13
2022-09-13T11:59:44.267Z,6.63
2022-09-13T12:02:37.795Z,8.10
2022-09-13T12:05:33.531Z,9.43
2022-09-13T12:08:28.297Z,7.30
2022-09-13T12:11:03.051Z,7.87
2022-09-13T12:13:35.889Z,7.23
2022-09-13T12:16:14.980Z,8.40
2022-09-13T12:19:02.541Z,8.13
2022-09-13T12:21:45.305Z,9.90
2022-09-13T12:24:21.122Z,9.00
2022-09-13T12:26:52.983Z,7.00
2022-09-13T12:29:42.435Z,6.57
2022-09-13T12:32:12.903Z,5.70
2022-09-13T12:35:02.450Z,5.30
2022-09-13T12:37:34.804Z,6.13
2022-09-13T12:40:21.602Z,6.23
2022-09-13T12:43:16.330Z,4.47
2022-09-13T12:45:57.990Z,4.63
2022-09-13T12:48:44.561Z,4.17
2022-09-13T12:51:34.078Z,3.40
2022-09-13T12:54:22.579Z,3.90
2022-09-13T12:56:59.031Z,3.80
2022-09-13T12:59:30.285Z,5.07
2022-09-13T13:02:03.548Z,4.40
2022-09-13T13:04:36.372Z,4.67
2022-09-13T13:07:12.806Z,4.60
2022-09-13T13:09:54.825Z,3.30
2022-09-13T13:12:48.248Z,2.97
2022-09-13T13:15:21.178Z,3.30
2022-09-13T13:17:57.007Z,3.40
2022-09-13T13:21:05.784Z,3.40
2022-09-13T13:23:39.383Z,3.70
2022-09-13T13:26:10.598Z,3.40
2022-09-13T13:28:53.245Z,3.10
2022-09-13T13:31:34.304Z,3.10
2022-09-13T13:34:27.304Z,3.23
2022-09-13T13:37:15.979Z,3.97
2022-09-13T13:42:51.109Z,2.83
2022-09-13T13:45:25.359Z,3.13
2022-09-13T13:48:18.130Z,3.10
2022-09-13T13:51:16.013Z,3.70
2022-09-13T13:53:50.918Z,3.33
2022-09-13T13:56:22.372Z,3.83
2022-09-13T13:59:01.573Z,3.40
2022-09-13T14:01:33.450Z,3.63
2022-09-13T14:04:31.162Z,4.13
2022-09-13T14:07:26.818Z,4.03
2022-09-13T14:10:06.149Z,5.20
2022-09-13T14:12:50.220Z,4.90
2022-09-13T14:15:33.469Z,4.87
2022-09-13T14:18:20.348Z,4.13
2022-09-13T14:21:07.866Z,4.07
2022-09-13T14:23:39.140Z,4.47
2022-09-13T14:26:13.868Z,4.40
2022-09-13T14:28:46.236Z,4.03
2022-09-13T14:34:07.710Z,3.57
2022-09-13T14:36:38.298Z,3.93
2022-09-13T14:39:10.905Z,3.40
2022-09-13T14:41:42.081Z,4.00
2022-09-13T14:44:24.929Z,4.47
2022-09-13T14:47:07.720Z,3.57
2022-09-13T14:49:47.366Z,3.23
2022-09-13T14:55:13.325Z,3.30
2022-09-13T14:57:49.704Z,3.57
2022-09-13T15:00:21.878Z,3.10
2022-09-13T15:02:52.455Z,3.40
2022-09-13T15:05:30.174Z,3.27
2022-09-13T15:08:05.780Z,4.00
2022-09-13T15:10:39.334Z,3.50
2022-09-13T15:13:12.010Z,3.87
2022-09-13T15:15:43.433Z,3.13
2022-09-13T15:18:22.816Z,2.70
2022-09-13T15:21:05.344Z,2.83
2022-09-13T15:23:43.870Z,2.70
2022-09-13T15:26:16.661Z,2.63
2022-09-13T15:29:03.322Z,2.30
2022-09-13T15:31:38.936Z,2.40
2022-09-13T15:34:32.531Z,2.90
2022-09-13T15:37:15.567Z,3.03
2022-09-13T15:39:48.421Z,3.10
2022-09-13T15:42:19.169Z,3.50
2022-09-13T15:44:51.364Z,4.10
2022-09-13T15:47:22.543Z,3.27
2022-09-13T15:50:01.625Z,3.33
2022-09-13T15:52:32.368Z,4.10
2022-09-13T15:55:01.795Z,4.30
2022-09-13T15:57:32.120Z,3.37
2022-09-13T16:00:06.721Z,3.23
2022-09-13T16:02:39.420Z,4.00
2022-09-13T16:05:11.182Z,3.83
2022-09-13T16:07:39.870Z,4.27
2022-09-13T16:10:12.528Z,3.40
2022-09-13T16:12:47.441Z,3.30
2022-09-13T16:15:17.251Z,2.90
2022-09-13T16:17:49.109Z,2.67
2022-09-13T16:20:17.908Z,2.93
2022-09-13T16:22:45.405Z,2.80
2022-09-13T16:25:14.294Z,2.50
2022-09-13T16:27:46.030Z,2.90
2022-09-13T16:30:17.772Z,2.20
2022-09-13T16:35:37.296Z,2.00
2022-09-13T16:38:08.615Z,2.10
2022-09-13T16:40:42.220Z,1.97
2022-09-13T16:43:13.618Z,2.30
2022-09-13T16:45:48.766Z,2.20
2022-09-13T16:48:19.810Z,2.30
2022-09-13T16:50:50.527Z,2.43
2022-09-13T16:53:23.292Z,2.20
2022-09-13T16:55:55.208Z,2.10
2022-09-13T16:58:33.115Z,2.20
2022-09-13T17:01:02.829Z,2.60
2022-09-13T17:03:32.060Z,1.93
2022-09-13T17:06:05.355Z,1.97
2022-09-13T17:08:35.997Z,1.87
2022-09-13T17:11:12.383Z,2.07
2022-09-13T17:13:44.188Z,2.20
2022-09-13T17:16:46.472Z,1.93
2022-09-13T17:19:20.964Z,2.03
2022-09-13T17:21:50.525Z,2.13
2022-09-13T17:24:23.325Z,2.00
2022-09-13T17:26:54.006Z,2.00
2022-09-13T17:29:25.723Z,1.63
2022-09-13T17:31:56.656Z,2.40
2022-09-13T17:34:26.933Z,2.30
2022-09-13T17:36:59.222Z,1.93
2022-09-13T17:39:31.252Z,1.90
2022-09-13T17:42:04.102Z,1.70
2022-09-13T17:44:34.555Z,1.67
2022-09-13T17:47:16.240Z,1.80
2022-09-13T17:49:54.346Z,2.00
2022-09-13T17:52:25.413Z,1.47
2022-09-13T17:54:54.819Z,1.50
2022-09-13T17:57:26.066Z,1.60
2022-09-13T17:59:58.325Z,2.07
2022-09-13T18:02:28.874Z,1.60
2022-09-13T18:05:13.599Z,1.90
2022-09-13T18:07:43.227Z,1.40
2022-09-13T18:10:40.342Z,1.57
2022-09-13T18:13:08.948Z,1.80
2022-09-13T18:15:44.932Z,1.47
2022-09-13T18:18:43.875Z,1.70
2022-09-13T18:21:16.986Z,1.60
2022-09-13T18:23:54.416Z,1.70
2022-09-13T18:26:28.085Z,1.67
2022-09-13T18:29:06.851Z,1.57
2022-09-13T18:31:39.243Z,1.27
2022-09-13T18:34:16.207Z,1.53
2022-09-13T18:36:49.446Z,1.40
2022-09-13T18:39:25.629Z,1.60
2022-09-13T18:41:59.386Z,1.70
2022-09-13T18:44:32.824Z,1.67
2022-09-13T18:47:07.718Z,1.67
2022-09-13T18:49:36.192Z,1.70
2022-09-13T18:52:15.350Z,1.60
2022-09-13T18:54:44.748Z,1.50
2022-09-13T18:57:14.440Z,1.47
2022-09-13T19:02:29.082Z,1.20
2022-09-13T19:05:01.796Z,1.40
2022-09-13T19:07:34.835Z,1.70
2022-09-13T19:15:36.220Z,1.33
2022-09-13T19:18:19.825Z,1.60
2022-09-13T19:21:02.077Z,1.40
2022-09-13T19:23:57.998Z,1.40
2022-09-13T19:26:34.462Z,1.17
2022-09-13T19:29:22.604Z,1.40
2022-09-13T19:31:57.484Z,1.30
2022-09-13T19:34:28.306Z,1.50
2022-09-13T19:37:00.439Z,1.40
2022-09-13T19:39:33.806Z,1.37
2022-09-13T19:42:08.078Z,1.30
2022-09-13T19:44:40.159Z,1.40
2022-09-13T19:48:02.312Z,1.40
2022-09-13T19:50:07.117Z,1.40
2022-09-13T19:52:37.072Z,1.40
2022-09-13T19:55:10.016Z,1.37
2022-09-13T19:57:46.933Z,1.20
2022-09-13T20:00:19.548Z,1.40
2022-09-13T20:02:50.444Z,1.53
2022-09-13T20:05:26.072Z,1.10
2022-09-13T20:07:57.818Z,1.50
2022-09-13T20:10:29.805Z,1.37
2022-09-13T20:13:05.707Z,1.10
2022-09-13T20:15:35.516Z,1.40
2022-09-13T20:18:08.049Z,1.30
2022-09-13T20:20:36.884Z,1.40
2022-09-13T20:23:06.282Z,1.03
2022-09-13T20:25:36.996Z,1.20
2022-09-13T20:28:10.246Z,1.50
2022-09-13T20:30:46.502Z,1.73
2022-09-13T20:33:17.860Z,1.30
2022-09-13T20:35:49.822Z,1.53
2022-09-13T20:38:20.887Z,0.93
2022-09-13T20:40:53.665Z,1.10
2022-09-13T20:43:24.275Z,1.57
2022-09-13T20:46:03.497Z,1.20
2022-09-13T20:48:34.513Z,1.20
2022-09-13T20:51:14.901Z,1.40
2022-09-13T20:53:43.696Z,1.00
2022-09-13T20:56:19.337Z,1.50
2022-09-13T20:58:52.700Z,1.13
2022-09-13T21:01:28.761Z,1.50
2022-09-13T21:04:14.524Z,1.40
2022-09-13T21:07:04.281Z,1.10
2022-09-13T21:09:34.970Z,1.27
2022-09-13T21:12:04.553Z,1.00
2022-09-13T21:14:37.181Z,1.20
2022-09-13T21:17:10.353Z,1.00
2022-09-13T21:19:42.419Z,0.90
2022-09-13T21:22:14.651Z,1.10
2022-09-13T21:24:46.628Z,0.90
2022-09-13T21:27:16.378Z,0.97
2022-09-13T21:29:48.237Z,1.20
2022-09-13T21:32:20.984Z,0.93
2022-09-13T21:35:02.456Z,0.83
2022-09-13T21:37:33.816Z,1.10
2022-09-13T21:40:05.439Z,1.13
2022-09-13T21:42:38.045Z,0.83
2022-09-13T21:45:06.883Z,0.90
2022-09-13T21:47:39.004Z,1.10
2022-09-13T21:50:11.676Z,1.07
2022-09-13T21:52:44.455Z,1.17
2022-09-13T21:55:13.929Z,1.40
2022-09-13T21:57:46.672Z,1.40
2022-09-13T22:00:43.360Z,1.30
2022-09-13T22:03:13.532Z,1.40
2022-09-13T22:05:41.807Z,1.40
2022-09-13T22:08:12.668Z,1.47
2022-09-13T22:10:46.046Z,1.40
2022-09-13T22:13:18.334Z,1.33
2022-09-13T22:15:52.010Z,1.30
2022-09-13T22:18:20.231Z,1.30
2022-09-13T22:20:52.916Z,1.13
2022-09-13T22:23:28.294Z,1.10
2022-09-13T22:26:00.427Z,1.10
2022-09-13T22:28:35.194Z,1.53
2022-09-13T22:31:11.835Z,1.53
2022-09-13T22:33:46.464Z,1.50
2022-09-13T22:36:17.691Z,1.77
2022-09-13T22:38:54.786Z,1.30
2022-09-13T22:41:28.351Z,1.43
2022-09-13T22:43:59.825Z,1.33
2022-09-13T22:46:37.105Z,1.27
2022-09-13T22:49:11.355Z,1.40
2022-09-13T22:51:41.635Z,1.43
2022-09-13T22:54:14.148Z,1.70
2022-09-13T22:56:46.272Z,1.40
2022-09-13T22:59:20.884Z,1.57
2022-09-13T23:01:50.482Z,1.50
2022-09-13T23:04:28.935Z,1.23
2022-09-13T23:06:58.365Z,1.60
2022-09-13T23:09:40.906Z,1.20
2022-09-13T23:12:11.282Z,1.10
2022-09-13T23:15:04.933Z,1.50
2022-09-13T23:17:32.118Z,1.40
2022-09-13T23:20:04.452Z,1.50
2022-09-13T23:22:35.060Z,1.47
2022-09-13T23:27:58.642Z,1.50
2022-09-13T23:30:26.577Z,1.50
2022-09-13T23:35:41.267Z,1.40
2022-09-13T23:38:16.354Z,1.40
2022-09-13T23:40:50.692Z,1.47
2022-09-13T23:43:20.190Z,1.70
2022-09-13T23:45:50.922Z,1.50
2022-09-13T23:48:34.241Z,1.37
2022-09-13T23:51:04.796Z,1.40
2022-09-13T23:53:36.236Z,1.80
2022-09-13T23:56:17.480Z,1.67
2022-09-13T23:58:47.587Z,2.03
